Time;durP1;ratioP1;P1;durP2;ratioP2;P2;SDS_P1;SDS_P2;PMS_P1;PMS_P2;Temp;Humidity;BMP_temperature;BMP_pressure;BME280_temperature;BME280_humidity;BME280_pressure;Samples;Min_cycle;Max_cycle;Signal;HPM_P1;HPM_P2
2024/02/08 00:02:08;;;;;;;1.80;1.20;;;;;;;3.95;78.40;99826.50;5014774;28;20213;-76
2024/02/08 00:04:37;;;;;;;3.23;1.40;;;;;;;3.90;78.93;99815.31;5015635;28;20679;-76
2024/02/08 00:07:03;;;;;;;6.53;2.17;;;;;;;4.03;78.45;99816.16;5014944;28;20240;-76
2024/02/08 00:09:31;;;;;;;4.53;1.30;;;;;;;4.06;78.56;99808.41;5015056;28;20262;-76
2024/02/08 00:11:57;;;;;;;5.13;1.20;;;;;;;4.05;78.68;99806.69;5015221;28;20216;-76
2024/02/08 00:14:24;;;;;;;4.97;1.47;;;;;;;4.08;78.18;99798.94;5015099;28;20294;-76
2024/02/08 00:16:52;;;;;;;5.17;1.60;;;;;;;4.11;77.87;99796.34;5015139;28;20322;-76
2024/02/08 00:19:18;;;;;;;4.13;1.87;;;;;;;4.18;77.67;99810.09;5016426;28;20201;-76
2024/02/08 00:21:45;;;;;;;4.27;1.73;;;;;;;4.09;77.14;99818.75;5018721;28;20207;-76
2024/02/08 00:24:11;;;;;;;5.23;1.50;;;;;;;4.03;77.92;99816.16;5014826;28;20204;-76
2024/02/08 00:26:41;;;;;;;5.13;2.17;;;;;;;4.07;78.41;99811.88;5015162;28;20311;-76
2024/02/08 00:29:07;;;;;;;6.00;2.30;;;;;;;4.13;77.87;99810.13;5014710;28;20638;-76
2024/02/08 00:31:34;;;;;;;6.60;2.50;;;;;;;4.12;77.90;99804.94;5014758;28;20262;-76
2024/02/08 00:34:00;;;;;;;4.23;1.83;;;;;;;3.99;78.67;99796.38;5014620;28;20767;-76
2024/02/08 00:36:27;;;;;;;4.97;2.10;;;;;;;3.81;79.06;99784.38;5014778;28;20601;-76
2024/02/08 00:38:53;;;;;;;4.27;1.93;;;;;;;3.78;78.93;99780.06;5014300;28;20211;-76
2024/02/08 00:41:23;;;;;;;5.80;1.87;;;;;;;3.85;78.99;99768.03;5018645;28;20236;-75
2024/02/08 00:43:51;;;;;;;3.73;1.63;;;;;;;3.86;78.97;99756.81;5017690;28;20596;-76
2024/02/08 00:46:19;;;;;;;3.67;1.80;;;;;;;3.88;79.72;99739.59;5014588;28;20216;-76
2024/02/08 00:48:46;;;;;;;3.90;1.80;;;;;;;3.97;79.73;99742.16;5014775;28;20208;-76
2024/02/08 00:51:12;;;;;;;3.30;1.93;;;;;;;3.92;80.27;99725.81;5014720;28;20270;-76
2024/02/08 00:53:38;;;;;;;3.73;1.90;;;;;;;3.93;80.40;99718.94;5013453;28;20301;-76
2024/02/08 00:56:09;;;;;;;4.23;1.80;;;;;;;3.93;81.31;99704.31;5014799;28;20288;-76
2024/02/08 00:58:36;;;;;;;5.83;1.63;;;;;;;4.01;79.66;99693.97;5014315;28;20247;-76
2024/02/08 01:01:07;;;;;;;3.50;1.70;;;;;;;3.94;80.49;99706.03;5014413;28;20209;-76
2024/02/08 01:03:34;;;;;;;4.03;1.67;;;;;;;3.97;80.21;99700.84;5013809;28;20207;-76
2024/02/08 01:06:02;;;;;;;5.93;1.47;;;;;;;4.05;80.25;99685.31;5013490;28;20259;-76
2024/02/08 01:08:28;;;;;;;5.17;1.97;;;;;;;4.05;79.95;99693.06;5013279;28;20669;-76
2024/02/08 01:10:55;;;;;;;7.07;1.87;;;;;;;4.12;79.92;99701.63;5014445;28;20215;-76
2024/02/08 01:13:24;;;;;;;3.97;1.90;;;;;;;4.09;80.26;99701.66;5013826;28;20228;-76
2024/02/08 01:15:50;;;;;;;2.13;1.60;;;;;;;4.05;80.81;99685.31;5017148;28;20242;-76
2024/02/08 01:18:20;;;;;;;4.03;2.13;;;;;;;3.97;80.83;99682.78;5013601;28;20201;-76
2024/02/08 01:20:46;;;;;;;3.10;1.63;;;;;;;3.88;81.34;99681.94;5014035;28;20208;-76
2024/02/08 01:23:16;;;;;;;5.50;2.00;;;;;;;3.88;81.27;99675.06;5013429;28;20213;-76
2024/02/08 01:25:42;;;;;;;4.57;2.03;;;;;;;4.01;81.36;99669.88;5014255;28;20201;-76
2024/02/08 01:28:09;;;;;;;5.90;2.60;;;;;;;4.07;81.22;99662.09;5013690;28;20753;-77
2024/02/08 01:30:38;;;;;;;9.50;2.67;;;;;;;4.04;81.10;99665.50;5012754;28;20254;-77
2024/02/08 01:33:06;;;;;;;9.87;3.00;;;;;;;4.11;80.52;99664.63;5013101;28;20226;-77
2024/02/08 01:35:33;;;;;;;6.03;2.73;;;;;;;4.03;79.83;99684.47;5013616;28;20220;-78
2024/02/08 01:38:00;;;;;;;9.60;3.23;;;;;;;4.05;79.58;99687.91;5012558;28;20228;-77
2024/02/08 01:40:26;;;;;;;8.10;3.40;;;;;;;4.12;79.46;99688.72;5013638;28;20220;-77
2024/02/08 01:42:57;;;;;;;5.33;2.20;;;;;;;4.12;79.63;99705.09;5013603;28;20212;-77
2024/02/08 01:45:34;;;;;;;5.00;2.60;;;;;;;4.02;79.36;99707.72;5008061;28;20207;-78
2024/02/08 01:48:02;;;;;;;8.30;3.93;;;;;;;3.99;79.13;99718.94;5017071;28;20234;-77
2024/02/08 01:50:30;;;;;;;5.03;2.73;;;;;;;3.96;79.78;99716.34;5017885;28;20207;-77
2024/02/08 01:52:59;;;;;;;5.17;3.33;;;;;;;3.92;80.13;99712.06;5016779;28;20239;-77
2024/02/08 01:55:32;;;;;;;6.87;3.07;;;;;;;4.00;79.87;99702.56;5015735;28;20205;-77
2024/02/08 01:58:00;;;;;;;4.93;2.70;;;;;;;4.04;79.87;99700.81;5013574;28;20232;-77
2024/02/08 02:00:29;;;;;;;6.47;2.50;;;;;;;4.09;80.05;99689.59;5013115;28;20209;-78
2024/02/08 02:02:57;;;;;;;6.97;3.00;;;;;;;4.09;80.14;99679.28;5013075;28;20577;-77
2024/02/08 02:05:25;;;;;;;5.03;2.17;;;;;;;4.12;80.19;99678.41;5013522;28;20270;-77
2024/02/08 02:07:51;;;;;;;9.13;3.60;;;;;;;4.15;80.38;99671.50;5012865;28;20329;-77
2024/02/08 02:10:19;;;;;;;5.87;2.77;;;;;;;4.19;80.69;99664.59;5012880;28;20725;-77
2024/02/08 02:12:48;;;;;;;7.50;2.60;;;;;;;4.24;80.47;99669.72;5013019;28;20212;-77
2024/02/08 02:15:15;;;;;;;5.60;2.50;;;;;;;4.27;80.25;99675.75;5012540;28;20257;-78
2024/02/08 02:17:45;;;;;;;5.73;2.63;;;;;;;4.25;80.37;99684.38;5004710;28;20229;-77
2024/02/08 02:20:18;;;;;;;5.93;2.13;;;;;;;4.19;80.10;99687.84;5013169;28;20216;-77
2024/02/08 02:22:46;;;;;;;3.03;2.13;;;;;;;4.03;80.76;99687.06;5012951;28;20209;-77
2024/02/08 02:25:13;;;;;;;4.40;2.10;;;;;;;4.05;81.42;99667.25;5012243;28;20209;-77
2024/02/08 02:27:42;;;;;;;8.80;2.70;;;;;;;4.10;81.32;99652.59;5012645;28;20314;-77
2024/02/08 02:30:15;;;;;;;7.23;2.83;;;;;;;3.97;81.61;99649.22;5012781;28;20244;-77
2024/02/08 02:32:44;;;;;;;7.40;2.80;;;;;;;3.75;80.96;99652.75;5012709;28;20208;-77
2024/02/08 02:35:11;;;;;;;9.97;2.93;;;;;;;3.54;81.91;99641.63;5012791;28;20236;-77
2024/02/08 02:37:38;;;;;;;5.37;2.63;;;;;;;3.75;81.95;99625.22;5012549;28;20228;-77
2024/02/08 02:40:08;;;;;;;5.13;2.33;;;;;;;3.92;82.08;99606.19;5011885;28;20202;-77
2024/02/08 02:42:35;;;;;;;13.70;3.53;;;;;;;4.01;82.24;99608.75;5012426;28;20831;-78
2024/02/08 02:45:01;;;;;;;4.53;2.63;;;;;;;4.07;82.03;99618.19;5012377;28;20200;-78
2024/02/08 02:47:27;;;;;;;7.03;2.37;;;;;;;4.06;81.79;99613.88;5012067;28;20240;-77
2024/02/08 02:49:55;;;;;;;7.37;2.70;;;;;;;3.98;82.15;99617.38;5012595;28;20621;-78
2024/02/08 02:52:21;;;;;;;4.23;2.53;;;;;;;4.02;82.80;99594.94;5011831;28;20204;-77
2024/02/08 02:54:48;;;;;;;4.83;2.57;;;;;;;4.06;82.06;99594.06;5012136;28;20616;-77
2024/02/08 02:57:16;;;;;;;5.50;2.53;;;;;;;4.09;82.28;99603.53;5014456;28;20591;-77
2024/02/08 02:59:42;;;;;;;5.73;2.30;;;;;;;4.00;83.56;99598.41;5018023;28;20281;-77
2024/02/08 03:02:09;;;;;;;5.67;2.30;;;;;;;3.94;83.36;99588.97;5011739;28;20585;-77
2024/02/08 03:04:35;;;;;;;7.47;2.43;;;;;;;3.92;83.36;99572.63;5012400;28;20204;-77
2024/02/08 03:07:02;;;;;;;4.57;2.63;;;;;;;3.92;83.74;99564.91;5011531;28;20331;-77
2024/02/08 03:09:30;;;;;;;5.23;3.03;;;;;;;4.02;83.17;99563.97;5011728;28;20209;-77
2024/02/08 03:11:57;;;;;;;4.50;2.73;;;;;;;3.91;83.45;99565.78;5019894;28;20217;-77
2024/02/08 03:14:25;;;;;;;5.30;2.40;;;;;;;3.96;83.21;99566.59;5011795;28;20889;-77
2024/02/08 03:16:52;;;;;;;8.80;2.33;;;;;;;3.85;83.99;99558.91;5007256;28;20239;-77
2024/02/08 03:19:20;;;;;;;6.23;3.27;;;;;;;3.76;84.81;99541.75;5011650;28;20254;-77
2024/02/08 03:21:46;;;;;;;9.33;2.83;;;;;;;3.89;84.45;99524.47;5011550;28;20212;-77
2024/02/08 03:24:13;;;;;;;5.50;2.67;;;;;;;3.93;84.35;99528.75;5011169;28;20253;-77
2024/02/08 03:26:44;;;;;;;6.67;2.73;;;;;;;4.01;83.66;99531.28;5011946;28;20610;-77
2024/02/08 03:29:11;;;;;;;5.97;2.97;;;;;;;4.06;83.65;99536.41;5011575;28;20330;-77
2024/02/08 03:31:45;;;;;;;4.43;2.33;;;;;;;4.04;83.48;99540.72;5011770;28;20208;-77
2024/02/08 03:34:16;;;;;;;3.50;2.40;;;;;;;3.96;83.93;99533.03;5011800;28;20259;-77
2024/02/08 03:36:44;;;;;;;5.27;2.77;;;;;;;4.00;83.62;99532.13;5011979;28;20672;-77
2024/02/08 03:39:19;;;;;;;7.73;3.10;;;;;;;4.06;83.28;99536.41;5012162;28;20586;-77
2024/02/08 03:41:45;;;;;;;6.10;2.83;;;;;;;4.09;83.13;99546.72;5017430;28;20213;-77
2024/02/08 03:44:12;;;;;;;4.73;2.87;;;;;;;3.89;83.73;99541.69;5011431;28;20258;-77
2024/02/08 03:46:38;;;;;;;4.17;2.47;;;;;;;3.96;84.23;99536.50;5010921;28;20725;-77
2024/02/08 03:49:08;;;;;;;5.10;2.40;;;;;;;4.02;83.99;99516.63;5011564;28;20212;-77
2024/02/08 03:51:37;;;;;;;7.63;2.77;;;;;;;4.06;83.81;99519.19;5011061;28;20213;-77
2024/02/08 03:54:03;;;;;;;7.00;2.50;;;;;;;4.12;83.06;99531.19;5011096;28;20229;-77
2024/02/08 03:56:36;;;;;;;7.53;2.40;;;;;;;4.16;83.02;99545.78;5011573;28;20648;-76
2024/02/08 03:59:07;;;;;;;6.17;2.67;;;;;;;4.11;82.18;99553.59;5011199;28;20204;-77
2024/02/08 04:01:35;;;;;;;5.50;2.80;;;;;;;4.09;83.14;99544.16;5011682;28;20658;-77
2024/02/08 04:04:11;;;;;;;8.90;3.37;;;;;;;4.05;83.10;99552.78;5011548;28;20617;-77
2024/02/08 04:06:49;;;;;;;6.60;4.47;;;;;;;4.03;83.01;99536.44;5011569;28;20244;-77
2024/02/08 04:09:33;;;;;;;6.30;3.80;;;;;;;4.08;82.58;99534.66;5010680;28;20251;-77
2024/02/08 04:55:53;;;;;;;5.50;2.43;;;;;;;4.03;84.85;99462.41;5017145;28;20299;-77
2024/02/08 04:58:20;;;;;;;5.47;2.83;;;;;;;4.04;84.68;99463.25;5014539;28;20209;-77
2024/02/08 05:00:47;;;;;;;7.87;2.73;;;;;;;4.00;85.23;99462.41;5014308;28;20244;-77
2024/02/08 05:03:16;;;;;;;6.83;3.03;;;;;;;4.03;85.36;99454.66;5013769;28;20211;-77
2024/02/08 05:05:43;;;;;;;6.37;2.93;;;;;;;4.01;85.17;99460.72;5014307;28;20586;-77
2024/02/08 05:08:10;;;;;;;4.90;2.60;;;;;;;4.07;84.77;99465.81;5013377;28;20241;-77
2024/02/08 05:10:36;;;;;;;5.80;3.13;;;;;;;3.93;85.20;99471.94;5014260;28;20715;-77
2024/02/08 05:13:07;;;;;;;8.47;3.17;;;;;;;4.02;85.46;99470.16;5014174;28;20340;-77
2024/02/08 05:15:33;;;;;;;8.53;3.23;;;;;;;4.09;84.89;99470.09;5013393;28;20777;-77
2024/02/08 05:18:00;;;;;;;9.17;2.83;;;;;;;4.00;84.99;99479.66;5012951;28;20232;-78
2024/02/08 05:20:26;;;;;;;8.33;2.77;;;;;;;3.97;86.04;99459.88;5013633;28;20205;-77
2024/02/08 05:22:52;;;;;;;4.97;3.10;;;;;;;3.94;86.29;99440.13;5013816;28;20257;-77
2024/02/08 05:25:20;;;;;;;7.17;2.80;;;;;;;3.99;86.67;99427.16;5013680;28;20212;-77
2024/02/08 05:27:47;;;;;;;5.50;2.90;;;;;;;3.90;86.56;99422.06;5013754;28;20220;-77
2024/02/08 05:30:19;;;;;;;7.03;3.30;;;;;;;3.99;86.72;99419.41;5013755;28;20222;-77
2024/02/08 05:32:45;;;;;;;6.87;3.37;;;;;;;4.04;86.45;99417.63;5012945;28;20204;-77
2024/02/08 05:35:13;;;;;;;4.83;3.17;;;;;;;3.98;86.72;99410.81;5013703;28;20232;-77
2024/02/08 05:37:39;;;;;;;6.37;3.23;;;;;;;4.04;86.38;99415.03;5013637;28;20225;-77
2024/02/08 05:40:07;;;;;;;6.83;3.07;;;;;;;3.97;85.90;99431.47;5013428;28;20667;-77
2024/02/08 05:42:33;;;;;;;5.80;2.73;;;;;;;3.92;86.42;99417.75;5013544;28;20740;-77
2024/02/08 05:45:18;;;;;;;6.07;3.17;;;;;;;3.93;86.68;99406.56;5013260;28;20205;-77
2024/02/08 05:47:48;;;;;;;6.83;3.00;;;;;;;4.00;86.67;99408.19;5006261;28;20231;-77
2024/02/08 05:50:21;;;;;;;4.30;3.10;;;;;;;4.14;85.14;99415.81;5013100;28;20213;-77
2024/02/08 05:52:48;;;;;;;9.50;4.27;;;;;;;4.19;84.07;99447.63;5013326;28;20209;-77
2024/02/08 05:55:15;;;;;;;4.03;3.60;;;;;;;4.12;84.78;99456.28;5014019;28;20225;-77
2024/02/08 05:57:44;;;;;;;5.57;3.67;;;;;;;4.11;84.30;99463.19;5013516;28;20222;-76
2024/02/08 06:00:14;;;;;;;7.67;3.70;;;;;;;3.97;85.32;99452.97;5013432;28;20209;-77
2024/02/08 06:02:41;;;;;;;5.93;4.07;;;;;;;3.95;85.97;99446.13;5005438;28;20246;-77
2024/02/08 06:05:16;;;;;;;7.97;4.43;;;;;;;4.05;86.21;99429.69;5013495;28;20198;-77
2024/02/08 06:07:56;;;;;;;5.63;3.90;;;;;;;4.14;85.68;99427.03;5013149;28;20708;-77
2024/02/08 06:10:23;;;;;;;8.80;3.67;;;;;;;4.15;85.03;99435.63;5012827;28;20228;-77
2024/02/08 06:12:59;;;;;;;6.00;3.63;;;;;;;4.06;85.40;99444.28;5013161;28;20209;-77
2024/02/08 06:15:32;;;;;;;8.20;4.03;;;;;;;4.00;85.90;99436.59;5010996;28;20220;-77
2024/02/08 06:18:03;;;;;;;6.67;4.10;;;;;;;4.01;85.54;99437.47;5006814;28;20230;-77
2024/02/08 06:20:40;;;;;;;6.33;3.90;;;;;;;3.94;86.14;99436.66;5012627;28;20215;-77
2024/02/08 06:23:17;;;;;;;8.17;4.23;;;;;;;4.05;85.75;99434.00;5012447;28;20651;-77
2024/02/08 06:25:45;;;;;;;9.13;4.13;;;;;;;4.06;85.69;99435.69;5012838;28;20555;-77
2024/02/08 06:28:12;;;;;;;5.77;4.30;;;;;;;4.02;85.52;99432.28;5013112;28;20231;-77
2024/02/08 06:30:46;;;;;;;6.73;4.87;;;;;;;4.02;86.27;99419.38;5012345;28;20202;-77
2024/02/08 06:33:25;;;;;;;18.17;4.40;;;;;;;3.97;86.20;99414.25;5012089;28;20201;-77
2024/02/08 06:35:56;;;;;;;7.37;4.80;;;;;;;3.95;86.15;99415.16;5012114;28;20228;-77
2024/02/08 06:38:40;;;;;;;8.83;4.57;;;;;;;4.04;86.24;99406.44;5012108;28;20216;-77
2024/02/08 06:41:09;;;;;;;7.03;4.77;;;;;;;4.01;86.17;99416.81;5012623;28;20209;-77
2024/02/08 06:43:56;;;;;;;7.40;3.93;;;;;;;3.88;86.36;99409.16;5012319;28;20216;-77
2024/02/08 06:46:39;;;;;;;6.77;5.00;;;;;;;3.96;86.41;99401.34;5012089;28;20220;-77
2024/02/08 07:38:48;;;;;;;9.30;6.73;;;;;;;4.23;86.61;99396.81;5012130;28;20205;-77
2024/02/08 07:41:12;;;;;;;15.17;9.43;;;;;;;4.28;86.12;99411.41;5012782;28;20204;-78
2024/02/08 07:43:43;;;;;;;10.07;8.67;;;;;;;4.38;85.61;99407.84;5011658;28;20224;-77
2024/02/08 07:46:16;;;;;;;10.67;8.10;;;;;;;4.44;85.00;99426.72;5012124;28;20235;-77
2024/02/08 07:48:43;;;;;;;11.17;8.40;;;;;;;4.41;84.24;99443.13;5003436;28;20242;-76
2024/02/08 07:51:15;;;;;;;10.83;8.80;;;;;;;4.43;85.20;99437.94;5011849;28;20269;-75
2024/02/08 07:53:50;;;;;;;17.07;10.30;;;;;;;4.47;85.38;99419.78;5010677;28;20295;-77
2024/02/08 07:56:37;;;;;;;10.60;9.50;;;;;;;4.49;85.00;99418.06;5011765;28;20275;-76
2024/02/08 07:59:04;;;;;;;8.50;7.63;;;;;;;4.52;85.33;99415.44;5011311;28;20658;-75
2024/02/08 08:01:32;;;;;;;8.70;6.30;;;;;;;4.55;85.13;99424.88;5011305;28;20208;-76
2024/02/08 08:04:00;;;;;;;12.43;7.90;;;;;;;4.52;85.60;99418.03;5011687;28;20205;-77
2024/02/08 08:06:34;;;;;;;9.50;7.30;;;;;;;4.57;85.16;99412.81;5019622;28;20241;-77
2024/02/08 08:09:18;;;;;;;8.10;6.33;;;;;;;4.62;84.96;99413.63;5010996;28;20263;-76
2024/02/08 08:11:46;;;;;;;9.87;6.40;;;;;;;4.62;84.73;99438.59;5011205;28;20255;-76
2024/02/08 08:14:55;;;;;;;8.87;6.33;;;;;;;4.70;84.84;99452.31;5011014;28;20209;-76
2024/02/08 08:17:31;;;;;;;8.80;6.83;;;;;;;4.74;84.17;99457.41;5010226;28;20963;-77
2024/02/08 08:20:04;;;;;;;11.30;8.50;;;;;;;4.70;84.70;99460.91;5010291;28;20196;-77
2024/02/08 08:22:50;;;;;;;9.57;8.53;;;;;;;4.71;85.14;99449.69;5017240;28;20209;-76
2024/02/08 08:25:29;;;;;;;14.90;8.47;;;;;;;4.80;84.38;99437.53;5015135;28;20196;-77
2024/02/08 08:28:29;;;;;;;10.27;8.53;;;;;;;4.84;84.68;99445.25;5015071;28;20314;-77
2024/02/08 08:31:00;;;;;;;14.20;9.07;;;;;;;4.81;84.39;99460.78;5019239;28;20839;-77
2024/02/08 08:33:58;;;;;;;13.73;9.43;;;;;;;4.95;83.59;99468.38;5017970;28;20197;-76
2024/02/08 08:36:28;;;;;;;10.83;8.43;;;;;;;5.01;83.23;99489.00;5018056;28;20238;-76
2024/02/08 08:38:54;;;;;;;12.43;8.30;;;;;;;5.03;83.61;99499.31;5008555;28;20314;-77
2024/02/08 08:41:24;;;;;;;13.73;9.03;;;;;;;5.06;83.08;99488.97;5016435;28;20210;-78
2024/02/08 08:43:53;;;;;;;12.10;9.10;;;;;;;5.03;83.42;99495.00;5015503;28;20209;-76
2024/02/08 08:46:21;;;;;;;15.67;9.53;;;;;;;5.07;82.51;99486.34;5015442;28;20256;-77
2024/02/08 08:48:50;;;;;;;18.00;9.07;;;;;;;5.09;82.72;99497.50;5015022;28;20565;-77
2024/02/08 08:51:23;;;;;;;12.37;10.87;;;;;;;5.15;83.06;99496.59;5014678;28;20205;-76
2024/02/08 08:54:00;;;;;;;15.23;9.90;;;;;;;5.18;82.61;99501.75;5022346;28;20779;-77
2024/02/08 08:56:28;;;;;;;17.23;12.37;;;;;;;5.20;82.49;99493.97;5013123;28;20228;-76
2024/02/08 08:58:58;;;;;;;12.50;11.20;;;;;;;5.11;83.03;99481.97;5013516;28;20210;-77
2024/02/08 09:01:25;;;;;;;12.40;11.30;;;;;;;5.19;83.42;99464.63;5014074;28;20216;-77
2024/02/08 09:04:09;;;;;;;14.33;11.07;;;;;;;5.28;83.91;99450.75;5014348;28;20679;-76
2024/02/08 09:06:34;;;;;;;15.97;11.17;;;;;;;5.32;83.48;99449.81;5014603;28;20287;-77
2024/02/08 09:09:27;;;;;;;14.13;10.40;;;;;;;5.37;82.72;99443.72;5013947;28;20609;-76
2024/02/08 09:11:49;;;;;;;11.80;9.20;;;;;;;5.43;83.43;99452.25;5014081;28;20211;-76
2024/02/08 09:14:16;;;;;;;14.50;9.77;;;;;;;5.44;83.18;99449.66;5022278;28;20209;-77
2024/02/08 09:16:52;;;;;;;18.80;10.87;;;;;;;5.47;84.07;99451.31;5013484;28;20233;-77
2024/02/08 09:19:27;;;;;;;13.87;11.97;;;;;;;5.52;83.61;99449.53;5014623;28;20262;-77
2024/02/08 09:21:58;;;;;;;16.50;11.23;;;;;;;5.57;83.41;99447.75;5014180;28;20211;-76
2024/02/08 09:24:26;;;;;;;13.13;10.57;;;;;;;5.62;82.31;99458.88;5013920;28;20205;-77
2024/02/08 09:27:01;;;;;;;12.40;10.37;;;;;;;5.69;82.38;99462.22;5012613;28;20650;-77
2024/02/08 09:29:38;;;;;;;14.43;10.10;;;;;;;5.77;82.25;99466.41;5014432;28;20212;-76
2024/02/08 09:32:15;;;;;;;12.40;9.93;;;;;;;5.83;82.33;99473.25;5013972;28;20263;-76
2024/02/08 09:34:41;;;;;;;10.63;8.60;;;;;;;5.91;82.10;99476.56;5013682;28;20204;-76
2024/02/08 09:37:08;;;;;;;13.43;7.97;;;;;;;5.97;81.98;99491.19;5013189;28;20284;-76
2024/02/08 09:42:16;;;;;;;11.83;9.90;;;;;;;6.09;81.54;99483.22;5013780;28;20215;-76
2024/02/08 09:44:49;;;;;;;11.03;9.30;;;;;;;6.14;81.08;99493.50;5013319;28;20280;-76
2024/02/08 09:47:25;;;;;;;11.40;9.67;;;;;;;6.18;81.26;99513.31;5012799;28;20575;-76
2024/02/08 09:50:00;;;;;;;23.90;11.13;;;;;;;6.25;80.81;99507.16;5013854;28;20208;-76
2024/02/08 09:52:30;;;;;;;12.10;9.23;;;;;;;6.31;80.17;99511.38;5020930;28;20203;-76
2024/02/08 09:55:06;;;;;;;11.90;8.43;;;;;;;6.34;80.32;99522.56;5004879;28;20261;-76
2024/02/08 09:57:45;;;;;;;14.23;10.23;;;;;;;6.33;80.34;99532.94;5013634;28;20251;-75
2024/02/08 10:03:03;;;;;;;13.73;9.80;;;;;;;6.37;79.04;99532.00;5012417;28;20216;-76
2024/02/08 10:08:27;;;;;;;13.47;9.93;;;;;;;6.38;80.09;99517.31;5006065;28;20242;-76
2024/02/08 10:11:07;;;;;;;11.97;9.53;;;;;;;6.45;80.15;99521.53;5013261;28;20231;-76
2024/02/08 10:13:51;;;;;;;9.00;7.40;;;;;;;6.46;80.17;99531.88;5013224;28;20205;-77
2024/02/08 10:16:29;;;;;;;11.27;7.10;;;;;;;6.49;79.79;99533.53;5004633;28;20224;-76
2024/02/08 10:19:02;;;;;;;11.53;6.93;;;;;;;6.60;80.13;99533.34;5013371;28;20676;-78
2024/02/08 10:21:29;;;;;;;13.10;6.77;;;;;;;6.66;79.01;99546.19;5013670;28;20214;-78
2024/02/08 10:23:59;;;;;;;13.30;7.00;;;;;;;6.68;78.95;99552.22;5013225;28;20289;-78
2024/02/08 10:26:27;;;;;;;7.47;6.00;;;;;;;6.71;79.21;99555.63;5012414;28;20309;-77
2024/02/08 10:28:56;;;;;;;7.17;5.47;;;;;;;6.76;78.41;99564.19;5012787;28;20218;-76
2024/02/08 10:31:24;;;;;;;7.63;5.83;;;;;;;6.79;77.83;99572.78;5013163;28;20631;-79
2024/02/08 10:33:57;;;;;;;10.47;6.83;;;;;;;6.85;78.18;99576.13;5014554;28;20261;-78
2024/02/08 10:36:31;;;;;;;7.07;5.90;;;;;;;6.90;78.30;99574.31;5012864;28;20231;-77
2024/02/08 10:39:03;;;;;;;6.30;4.87;;;;;;;6.94;76.99;99586.34;5015718;28;20209;-76
2024/02/08 10:41:38;;;;;;;7.27;5.47;;;;;;;6.94;75.95;99614.88;5016536;28;20211;-77
2024/02/08 10:44:06;;;;;;;8.73;5.23;;;;;;;7.01;76.22;99610.44;5009892;28;20679;-78
2024/02/08 10:46:42;;;;;;;8.37;4.80;;;;;;;7.11;75.87;99621.50;5015627;28;20221;-77
2024/02/08 10:49:10;;;;;;;11.07;5.13;;;;;;;7.12;75.52;99636.22;5010670;28;20696;-78
2024/02/08 10:51:37;;;;;;;6.13;5.50;;;;;;;7.21;75.15;99633.44;5013189;28;20297;-78
2024/02/08 10:54:06;;;;;;;11.10;6.53;;;;;;;7.16;75.52;99635.28;5012563;28;20206;-77
2024/02/08 10:56:44;;;;;;;9.70;5.97;;;;;;;7.24;74.75;99629.94;5013535;28;20235;-78
2024/02/08 10:59:13;;;;;;;6.40;5.10;;;;;;;7.17;75.02;99644.75;5005865;28;20214;-78
2024/02/08 11:04:28;;;;;;;8.20;5.67;;;;;;;7.23;74.36;99660.22;5012441;28;20202;-78
2024/02/08 11:07:06;;;;;;;7.57;5.40;;;;;;;7.23;73.99;99649.84;5020346;28;20230;-78
2024/02/08 11:09:32;;;;;;;7.07;5.40;;;;;;;7.25;74.35;99652.41;5012731;28;20209;-78
2024/02/08 11:12:03;;;;;;;6.27;4.57;;;;;;;7.24;73.85;99651.56;5010661;28;20205;-77
2024/02/08 11:14:38;;;;;;;7.37;4.57;;;;;;;7.13;73.81;99662.13;5004736;28;20708;-78
2024/02/08 11:17:20;;;;;;;5.83;5.00;;;;;;;7.22;74.15;99647.28;5002556;28;20723;-77
2024/02/08 11:19:49;;;;;;;7.07;4.73;;;;;;;7.25;74.03;99647.22;5005961;28;20210;-78
2024/02/08 11:22:34;;;;;;;8.90;4.37;;;;;;;7.30;73.64;99645.41;5006675;28;20230;-78
2024/02/08 11:25:18;;;;;;;8.57;5.07;;;;;;;7.35;73.54;99647.03;5006849;28;20297;-78
2024/02/08 11:27:47;;;;;;;6.77;4.87;;;;;;;7.36;74.07;99640.94;5004924;28;20227;-77
2024/02/08 11:30:19;;;;;;;6.70;4.53;;;;;;;7.40;73.21;99644.34;5004293;28;20206;-77
2024/02/08 11:33:01;;;;;;;7.63;4.30;;;;;;;7.44;72.97;99637.34;5005527;28;20199;-78
2024/02/08 11:35:31;;;;;;;8.43;4.57;;;;;;;7.54;73.47;99626.75;5003104;28;20679;-77
2024/02/08 11:38:10;;;;;;;5.83;4.33;;;;;;;7.65;72.75;99629.16;5005091;28;20699;-78
2024/02/08 11:40:36;;;;;;;9.43;5.60;;;;;;;7.67;71.53;99661.16;5004431;28;20208;-77
2024/02/08 11:43:05;;;;;;;7.90;4.80;;;;;;;7.68;71.75;99669.78;5006250;28;20212;-77
2024/02/08 11:45:35;;;;;;;10.27;5.33;;;;;;;7.69;70.94;99680.16;5002846;28;20230;-77
2024/02/08 11:48:04;;;;;;;7.87;4.30;;;;;;;7.69;70.65;99685.34;5002063;28;20240;-78
2024/02/08 11:50:36;;;;;;;6.60;4.57;;;;;;;7.62;69.68;99708.88;5003204;28;20218;-78
2024/02/08 11:53:04;;;;;;;6.43;4.63;;;;;;;7.53;69.86;99720.25;5005693;28;20213;-78
2024/02/08 11:55:32;;;;;;;6.60;4.33;;;;;;;7.52;70.45;99714.22;5005145;28;20745;-77
2024/02/08 11:57:59;;;;;;;6.63;4.23;;;;;;;7.51;71.32;99691.75;5005455;28;20223;-76
2024/02/08 12:00:26;;;;;;;9.40;3.63;;;;;;;7.40;71.22;99692.81;5003043;28;20206;-76
2024/02/08 12:02:57;;;;;;;7.17;4.13;;;;;;;7.23;70.78;99695.72;5005606;28;20203;-77
2024/02/08 12:05:25;;;;;;;6.10;3.93;;;;;;;7.29;71.88;99680.03;5005173;28;20203;-76
2024/02/08 12:07:52;;;;;;;8.37;3.73;;;;;;;7.36;71.10;99658.28;5004670;28;20238;-76
2024/02/08 12:10:22;;;;;;;4.63;2.80;;;;;;;7.36;69.78;99682.47;5004219;28;20693;-76
2024/02/08 12:12:53;;;;;;;5.00;3.07;;;;;;;7.30;68.23;99713.75;5004903;28;20206;-76
2024/02/08 12:15:20;;;;;;;4.63;3.10;;;;;;;7.24;68.36;99726.84;5001742;28;20205;-77
2024/02/08 12:17:48;;;;;;;7.03;3.40;;;;;;;7.23;69.16;99722.50;5000148;28;20256;-77
2024/02/08 12:20:17;;;;;;;7.37;3.20;;;;;;;7.32;69.83;99717.16;5007153;28;20610;-76
2024/02/08 12:22:53;;;;;;;9.20;3.07;;;;;;;7.31;69.34;99723.25;5011119;28;20219;-76
2024/02/08 12:25:19;;;;;;;4.87;3.23;;;;;;;7.35;69.78;99716.25;5011328;28;20272;-76
2024/02/08 12:27:49;;;;;;;6.43;3.53;;;;;;;7.38;70.09;99703.22;5011000;28;20227;-77
2024/02/08 12:30:22;;;;;;;8.20;4.00;;;;;;;7.41;69.59;99700.56;5012027;28;20203;-78
2024/02/08 12:32:51;;;;;;;4.60;3.23;;;;;;;7.43;69.97;99688.41;5010952;28;20207;-78
2024/02/08 12:35:20;;;;;;;5.37;3.33;;;;;;;7.42;70.27;99689.31;5010941;28;20206;-77
2024/02/08 12:37:49;;;;;;;5.10;3.67;;;;;;;7.42;70.19;99681.53;5010592;28;20673;-76
2024/02/08 12:40:18;;;;;;;5.47;3.47;;;;;;;7.40;70.51;99667.72;5011399;28;20210;-76
2024/02/08 12:42:46;;;;;;;5.20;3.97;;;;;;;7.46;69.65;99667.59;5011497;28;20213;-78
2024/02/08 12:45:17;;;;;;;8.10;4.13;;;;;;;7.47;69.11;99669.31;5011915;28;20203;-77
2024/02/08 12:47:49;;;;;;;5.60;3.70;;;;;;;7.45;70.18;99676.28;5010962;28;20221;-78
2024/02/08 12:50:17;;;;;;;11.53;5.10;;;;;;;7.43;70.46;99661.59;5012501;28;20692;-77
2024/02/08 12:52:43;;;;;;;5.63;4.00;;;;;;;7.42;71.54;99650.38;5011087;28;20211;-77
2024/02/08 12:55:13;;;;;;;7.90;4.03;;;;;;;7.47;71.17;99642.47;5002830;28;20208;-77
2024/02/08 12:57:40;;;;;;;8.67;4.27;;;;;;;7.48;70.39;99632.06;5012187;28;20229;-78
2024/02/08 13:00:09;;;;;;;7.00;4.40;;;;;;;7.48;69.42;99642.44;5019848;28;20209;-76
2024/02/08 13:02:36;;;;;;;6.40;3.53;;;;;;;7.46;69.96;99643.38;5014108;28;20208;-76
2024/02/08 13:05:02;;;;;;;5.33;3.77;;;;;;;7.42;69.79;99647.75;5014536;28;20210;-76
2024/02/08 13:07:29;;;;;;;8.40;3.83;;;;;;;7.35;69.50;99659.13;4321412;28;10000750;-79
2024/02/08 13:10:02;;;;;;;7.80;3.60;;;;;;;7.33;70.07;99663.50;5013430;28;20886;-79
2024/02/08 13:12:30;;;;;;;6.30;3.67;;;;;;;6.98;70.47;99659.81;5012680;28;20656;-78
2024/02/08 13:15:02;;;;;;;8.43;3.33;;;;;;;7.07;71.69;99623.28;5019987;28;20213;-78
2024/02/08 13:17:32;;;;;;;6.40;3.37;;;;;;;7.12;73.09;99584.31;5013257;28;20242;-78
2024/02/08 13:19:59;;;;;;;5.93;3.13;;;;;;;7.20;73.60;99553.88;5014104;28;20208;-78
2024/02/08 13:22:30;;;;;;;6.67;3.40;;;;;;;7.27;71.78;99557.19;5013311;28;20281;-77
2024/02/08 13:24:58;;;;;;;5.23;3.23;;;;;;;7.25;70.96;99575.38;5012017;28;20348;-77
2024/02/08 13:27:28;;;;;;;11.80;4.73;;;;;;;7.26;69.65;99591.84;5019466;28;20285;-77
2024/02/08 13:29:57;;;;;;;7.27;4.13;;;;;;;7.25;70.44;99603.09;5013045;28;20277;-79
2024/02/08 13:32:27;;;;;;;5.87;3.27;;;;;;;7.16;69.11;99619.69;5011223;28;20212;-78
2024/02/08 13:34:53;;;;;;;5.73;3.20;;;;;;;7.09;69.81;99616.34;5011494;28;20209;-77
2024/02/08 13:37:22;;;;;;;6.37;4.00;;;;;;;7.11;69.69;99609.38;5011337;28;20263;-78
2024/02/08 13:39:48;;;;;;;7.13;3.57;;;;;;;7.10;69.76;99606.84;5012948;28;20579;-81